sensor_id;sensor_type;location;lat;lon;timestamp;pressure;altitude;pressure_sealevel;temperature;humidity
59419;BME280;45224;50.904;6.038;2022-09-21T00:00:27;100819.00;;;11.25;77.77
59419;BME280;45224;50.904;6.038;2022-09-21T00:01:59;100810.28;;;11.17;77.74
59419;BME280;45224;50.904;6.038;2022-09-21T00:03:30;100819.75;;;11.14;77.97
59419;BME280;45224;50.904;6.038;2022-09-21T00:05:00;100817.91;;;11.09;77.61
59419;BME280;45224;50.904;6.038;2022-09-21T00:06:32;100821.31;;;11.05;78.02
59419;BME280;45224;50.904;6.038;2022-09-21T00:08:05;100821.25;;;11.00;77.97
59419;BME280;45224;50.904;6.038;2022-09-21T00:09:36;100822.03;;;10.96;78.08
59419;BME280;45224;50.904;6.038;2022-09-21T00:11:11;100821.94;;;10.87;78.26
59419;BME280;45224;50.904;6.038;2022-09-21T00:12:42;100820.97;;;10.82;77.88
59419;BME280;45224;50.904;6.038;2022-09-21T00:14:13;100814.00;;;10.76;78.47
59419;BME280;45224;50.904;6.038;2022-09-21T00:15:44;100815.63;;;10.69;78.69
59419;BME280;45224;50.904;6.038;2022-09-21T00:17:14;100815.59;;;10.68;78.54
59419;BME280;45224;50.904;6.038;2022-09-21T00:18:46;100825.03;;;10.67;78.66
59419;BME280;45224;50.904;6.038;2022-09-21T00:20:17;100812.94;;;10.63;78.68
59419;BME280;45224;50.904;6.038;2022-09-21T00:21:53;100818.03;;;10.60;79.16
59419;BME280;45224;50.904;6.038;2022-09-21T00:23:24;100818.03;;;10.58;79.19
59419;BME280;45224;50.904;6.038;2022-09-21T00:24:55;100824.88;;;10.55;79.38
59419;BME280;45224;50.904;6.038;2022-09-21T00:26:26;100816.13;;;10.48;79.19
59419;BME280;45224;50.904;6.038;2022-09-21T00:27:57;100820.38;;;10.45;79.65
59419;BME280;45224;50.904;6.038;2022-09-21T00:29:28;100819.44;;;10.41;79.48
59419;BME280;45224;50.904;6.038;2022-09-21T00:31:03;100819.41;;;10.39;79.63
59419;BME280;45224;50.904;6.038;2022-09-21T00:32:36;100819.41;;;10.39;79.46
59419;BME280;45224;50.904;6.038;2022-09-21T00:34:07;100822.88;;;10.38;79.58
59419;BME280;45224;50.904;6.038;2022-09-21T00:35:38;100827.09;;;10.35;79.80
59419;BME280;45224;50.904;6.038;2022-09-21T00:37:08;100827.97;;;10.34;79.46
59419;BME280;45224;50.904;6.038;2022-09-21T00:38:39;100825.25;;;10.29;79.91
59419;BME280;45224;50.904;6.038;2022-09-21T00:40:10;100826.97;;;10.29;79.66
59419;BME280;45224;50.904;6.038;2022-09-21T00:41:41;100829.53;;;10.27;80.01
59419;BME280;45224;50.904;6.038;2022-09-21T00:43:16;100826.03;;;10.25;79.95
59419;BME280;45224;50.904;6.038;2022-09-21T00:44:47;100827.72;;;10.23;79.94
59419;BME280;45224;50.904;6.038;2022-09-21T00:46:28;100824.25;;;10.21;80.08
59419;BME280;45224;50.904;6.038;2022-09-21T00:48:00;100828.50;;;10.19;79.85
59419;BME280;45224;50.904;6.038;2022-09-21T00:49:32;100825.00;;;10.15;79.62
59419;BME280;45224;50.904;6.038;2022-09-21T00:51:05;100832.72;;;10.14;79.79
59419;BME280;45224;50.904;6.038;2022-09-21T00:52:40;100825.78;;;10.10;79.85
59419;BME280;45224;50.904;6.038;2022-09-21T00:54:15;100819.66;;;10.04;80.02
59419;BME280;45224;50.904;6.038;2022-09-21T00:55:51;100825.66;;;10.03;79.70
59419;BME280;45224;50.904;6.038;2022-09-21T00:57:26;100829.97;;;10.03;79.50
59419;BME280;45224;50.904;6.038;2022-09-21T00:58:59;100816.09;;;9.99;79.74
59419;BME280;45224;50.904;6.038;2022-09-21T01:00:30;100826.44;;;10.01;79.79
59419;BME280;45224;50.904;6.038;2022-09-21T01:02:01;100827.31;;;10.00;79.95
59419;BME280;45224;50.904;6.038;2022-09-21T01:03:31;100821.09;;;9.90;80.37
59419;BME280;45224;50.904;6.038;2022-09-21T01:05:04;100820.19;;;9.88;79.98
59419;BME280;45224;50.904;6.038;2022-09-21T01:06:36;100827.03;;;9.86;80.12
59419;BME280;45224;50.904;6.038;2022-09-21T01:08:09;100834.72;;;9.83;80.25
59419;BME280;45224;50.904;6.038;2022-09-21T01:09:44;100827.69;;;9.76;80.19
59419;BME280;45224;50.904;6.038;2022-09-21T01:11:22;100825.91;;;9.73;80.26
59419;BME280;45224;50.904;6.038;2022-09-21T01:15:03;100830.81;;;9.59;81.78
59419;BME280;45224;50.904;6.038;2022-09-21T01:18:47;100828.25;;;9.59;82.04
59419;BME280;45224;50.904;6.038;2022-09-21T01:29:31;100823.69;;;9.49;81.94
59419;BME280;45224;50.904;6.038;2022-09-21T01:31:06;100814.09;;;9.42;81.66
59419;BME280;45224;50.904;6.038;2022-09-21T01:32:51;100821.03;;;9.44;81.99
59419;BME280;45224;50.904;6.038;2022-09-21T01:34:37;100813.19;;;9.38;82.46
59419;BME280;45224;50.904;6.038;2022-09-21T01:36:13;100810.56;;;9.37;81.84
59419;BME280;45224;50.904;6.038;2022-09-21T01:37:52;100819.19;;;9.39;82.37
59419;BME280;45224;50.904;6.038;2022-09-21T01:39:25;100814.75;;;9.33;82.37
59419;BME280;45224;50.904;6.038;2022-09-21T01:41:00;100810.44;;;9.30;82.63
59419;BME280;45224;50.904;6.038;2022-09-21T01:42:33;100810.50;;;9.34;82.58
59419;BME280;45224;50.904;6.038;2022-09-21T01:44:09;100810.50;;;9.34;82.91
59419;BME280;45224;50.904;6.038;2022-09-21T01:45:48;100800.97;;;9.31;82.49
59419;BME280;45224;50.904;6.038;2022-09-21T01:47:21;100802.75;;;9.34;82.63
59419;BME280;45224;50.904;6.038;2022-09-21T01:48:53;100810.47;;;9.32;83.58
59419;BME280;45224;50.904;6.038;2022-09-21T01:50:30;100800.06;;;9.29;83.21
59419;BME280;45224;50.904;6.038;2022-09-21T01:52:24;100810.50;;;9.34;83.16
59419;BME280;45224;50.904;6.038;2022-09-21T01:54:01;100809.69;;;9.38;82.50
59419;BME280;45224;50.904;6.038;2022-09-21T01:55:48;100812.34;;;9.41;83.28
59419;BME280;45224;50.904;6.038;2022-09-21T01:57:43;100805.50;;;9.43;82.99
59419;BME280;45224;50.904;6.038;2022-09-21T01:59:25;100808.97;;;9.43;82.24
59419;BME280;45224;50.904;6.038;2022-09-21T02:00:59;100807.19;;;9.41;82.35
59419;BME280;45224;50.904;6.038;2022-09-21T02:03:13;100814.09;;;9.42;82.00
59419;BME280;45224;50.904;6.038;2022-09-21T02:04:24;100805.44;;;9.38;82.21
59419;BME280;45224;50.904;6.038;2022-09-21T02:05:56;100807.06;;;9.35;82.01
59419;BME280;45224;50.904;6.038;2022-09-21T02:07:26;100801.81;;;9.31;81.83
59419;BME280;45224;50.904;6.038;2022-09-21T02:08:57;100813.03;;;9.32;81.87
59419;BME280;45224;50.904;6.038;2022-09-21T02:12:03;100812.03;;;9.25;81.69
59419;BME280;45224;50.904;6.038;2022-09-21T02:13:37;100813.69;;;9.23;81.76
59419;BME280;45224;50.904;6.038;2022-09-21T02:15:09;100817.13;;;9.22;82.18
59419;BME280;45224;50.904;6.038;2022-09-21T02:18:39;100816.13;;;9.17;82.03
59419;BME280;45224;50.904;6.038;2022-09-21T02:20:29;100814.34;;;9.13;82.34
59419;BME280;45224;50.904;6.038;2022-09-21T02:22:04;100813.38;;;9.08;82.02
59419;BME280;45224;50.904;6.038;2022-09-21T02:23:42;100815.06;;;9.07;82.19
59419;BME280;45224;50.904;6.038;2022-09-21T02:27:04;100821.09;;;9.08;81.83
59419;BME280;45224;50.904;6.038;2022-09-21T02:28:47;100814.16;;;9.05;81.93
59419;BME280;45224;50.904;6.038;2022-09-21T02:30:19;100820.19;;;9.06;82.60
59419;BME280;45224;50.904;6.038;2022-09-21T02:31:54;100821.03;;;9.05;82.44
59419;BME280;45224;50.904;6.038;2022-09-21T02:33:34;100814.91;;;9.00;82.41
59419;BME280;45224;50.904;6.038;2022-09-21T02:35:20;100820.06;;;9.00;82.43
59419;BME280;45224;50.904;6.038;2022-09-21T02:37:06;100820.00;;;8.97;82.89
59419;BME280;45224;50.904;6.038;2022-09-21T02:38:46;100825.97;;;8.95;82.35
59419;BME280;45224;50.904;6.038;2022-09-21T02:40:27;100822.50;;;8.93;82.61
59419;BME280;45224;50.904;6.038;2022-09-21T02:42:11;100816.44;;;8.91;82.62
59419;BME280;45224;50.904;6.038;2022-09-21T02:43:50;100819.00;;;8.90;82.46
59419;BME280;45224;50.904;6.038;2022-09-21T02:45:26;100825.00;;;8.90;82.27
59419;BME280;45224;50.904;6.038;2022-09-21T02:47:03;100818.13;;;8.91;82.64
59419;BME280;45224;50.904;6.038;2022-09-21T02:48:41;100813.84;;;8.90;82.72
59419;BME280;45224;50.904;6.038;2022-09-21T02:50:19;100811.22;;;8.88;83.15
59419;BME280;45224;50.904;6.038;2022-09-21T02:51:56;100814.63;;;8.87;82.82
59419;BME280;45224;50.904;6.038;2022-09-21T02:53:30;100813.84;;;8.90;83.15
59419;BME280;45224;50.904;6.038;2022-09-21T02:55:02;100818.09;;;8.89;83.21
59419;BME280;45224;50.904;6.038;2022-09-21T02:56:34;100818.09;;;8.89;83.14
59419;BME280;45224;50.904;6.038;2022-09-21T02:58:08;100816.41;;;8.90;82.76
59419;BME280;45224;50.904;6.038;2022-09-21T02:59:42;100807.78;;;8.89;82.90
59419;BME280;45224;50.904;6.038;2022-09-21T03:01:14;100811.22;;;8.88;82.88
59419;BME280;45224;50.904;6.038;2022-09-21T03:02:45;100811.22;;;8.88;83.05
59419;BME280;45224;50.904;6.038;2022-09-21T03:04:17;100809.53;;;8.90;82.75
59419;BME280;45224;50.904;6.038;2022-09-21T03:05:48;100820.72;;;8.91;83.43
59419;BME280;45224;50.904;6.038;2022-09-21T03:07:19;100818.06;;;8.88;82.83
59419;BME280;45224;50.904;6.038;2022-09-21T03:08:49;100819.78;;;8.87;82.56
59419;BME280;45224;50.904;6.038;2022-09-21T03:10:19;100811.06;;;8.82;82.66
59419;BME280;45224;50.904;6.038;2022-09-21T03:11:50;100812.72;;;8.79;82.96
59419;BME280;45224;50.904;6.038;2022-09-21T03:13:21;100818.69;;;8.77;82.80
59419;BME280;45224;50.904;6.038;2022-09-21T03:14:52;100821.22;;;8.76;83.00
59419;BME280;45224;50.904;6.038;2022-09-21T03:16:22;100826.38;;;8.76;83.03
59419;BME280;45224;50.904;6.038;2022-09-21T03:17:53;100821.94;;;8.70;82.80
59419;BME280;45224;50.904;6.038;2022-09-21T03:19:24;100821.06;;;8.70;82.56
59419;BME280;45224;50.904;6.038;2022-09-21T03:20:54;100824.59;;;8.73;82.91
59419;BME280;45224;50.904;6.038;2022-09-21T03:22:25;100828.88;;;8.73;82.88
59419;BME280;45224;50.904;6.038;2022-09-21T03:23:55;100828.78;;;8.68;83.25
59419;BME280;45224;50.904;6.038;2022-09-21T03:25:27;100823.50;;;8.64;82.91
59419;BME280;45224;50.904;6.038;2022-09-21T03:26:58;100827.72;;;8.60;83.09
59419;BME280;45224;50.904;6.038;2022-09-21T03:28:28;100825.06;;;8.57;83.10
59419;BME280;45224;50.904;6.038;2022-09-21T03:29:59;100824.19;;;8.56;83.40
59419;BME280;45224;50.904;6.038;2022-09-21T03:31:29;100818.06;;;8.51;82.88
59419;BME280;45224;50.904;6.038;2022-09-21T03:33:01;100817.22;;;8.52;83.25
59419;BME280;45224;50.904;6.038;2022-09-21T03:34:34;100823.13;;;8.48;83.23
59419;BME280;45224;50.904;6.038;2022-09-21T03:36:05;100820.56;;;8.48;83.73
59419;BME280;45224;50.904;6.038;2022-09-21T03:37:36;100824.81;;;8.46;83.81
59419;BME280;45224;50.904;6.038;2022-09-21T03:39:06;100823.97;;;8.47;84.11
59419;BME280;45224;50.904;6.038;2022-09-21T03:40:37;100824.81;;;8.46;83.99
59419;BME280;45224;50.904;6.038;2022-09-21T03:42:07;100823.06;;;8.45;83.91
59419;BME280;45224;50.904;6.038;2022-09-21T03:43:39;100822.22;;;8.46;83.73
59419;BME280;45224;50.904;6.038;2022-09-21T03:45:10;100825.63;;;8.45;84.01
59419;BME280;45224;50.904;6.038;2022-09-21T03:46:41;100822.16;;;8.43;84.15
59419;BME280;45224;50.904;6.038;2022-09-21T03:48:11;100828.16;;;8.44;83.88
59419;BME280;45224;50.904;6.038;2022-09-21T03:49:42;100822.09;;;8.41;83.69
59419;BME280;45224;50.904;6.038;2022-09-21T03:51:13;100821.22;;;8.43;84.04
59419;BME280;45224;50.904;6.038;2022-09-21T03:52:43;100825.53;;;8.42;84.02
59419;BME280;45224;50.904;6.038;2022-09-21T03:54:14;100823.75;;;8.41;83.85
59419;BME280;45224;50.904;6.038;2022-09-21T03:55:45;100832.34;;;8.40;83.83
59419;BME280;45224;50.904;6.038;2022-09-21T03:57:15;100822.03;;;8.40;83.59
59419;BME280;45224;50.904;6.038;2022-09-21T03:58:46;100822.94;;;8.42;83.49
59419;BME280;45224;50.904;6.038;2022-09-21T04:00:16;100824.66;;;8.41;84.09
59419;BME280;45224;50.904;6.038;2022-09-21T04:01:47;100823.03;;;8.44;83.45
59419;BME280;45224;50.904;6.038;2022-09-21T04:03:17;100827.31;;;8.43;83.71
59419;BME280;45224;50.904;6.038;2022-09-21T04:04:48;100832.47;;;8.43;84.04
59419;BME280;45224;50.904;6.038;2022-09-21T04:06:18;100825.53;;;8.42;84.02
59419;BME280;45224;50.904;6.038;2022-09-21T04:07:49;100830.59;;;8.39;83.41
59419;BME280;45224;50.904;6.038;2022-09-21T04:09:19;100827.19;;;8.40;83.62
59419;BME280;45224;50.904;6.038;2022-09-21T04:10:50;100829.72;;;8.38;83.61
59419;BME280;45224;50.904;6.038;2022-09-21T04:12:21;100827.13;;;8.37;83.80
59419;BME280;45224;50.904;6.038;2022-09-21T04:13:51;100830.59;;;8.39;83.44
59419;BME280;45224;50.904;6.038;2022-09-21T04:15:31;100823.63;;;8.35;83.59
59419;BME280;45224;50.904;6.038;2022-09-21T04:17:01;100823.66;;;8.36;83.92
59419;BME280;45224;50.904;6.038;2022-09-21T04:18:32;100828.84;;;8.38;84.16
59419;BME280;45224;50.904;6.038;2022-09-21T04:20:03;100830.59;;;8.39;83.86
59419;BME280;45224;50.904;6.038;2022-09-21T04:21:34;100828.88;;;8.39;84.35
59419;BME280;45224;50.904;6.038;2022-09-21T04:23:04;100818.63;;;8.41;84.03
59419;BME280;45224;50.904;6.038;2022-09-21T04:24:35;100822.22;;;8.46;83.75
59419;BME280;45224;50.904;6.038;2022-09-21T04:26:05;100831.03;;;8.54;83.61
59419;BME280;45224;50.904;6.038;2022-09-21T04:27:35;100826.81;;;8.58;84.27
59419;BME280;45224;50.904;6.038;2022-09-21T04:29:06;100829.50;;;8.63;84.04
59419;BME280;45224;50.904;6.038;2022-09-21T04:30:36;100821.91;;;8.67;84.22
59419;BME280;45224;50.904;6.038;2022-09-21T04:32:07;100826.22;;;8.70;84.13
59419;BME280;45224;50.904;6.038;2022-09-21T04:33:37;100830.63;;;8.74;84.21
59419;BME280;45224;50.904;6.038;2022-09-21T04:35:08;100833.28;;;8.77;83.91
59419;BME280;45224;50.904;6.038;2022-09-21T04:36:39;100827.34;;;8.81;83.89
59419;BME280;45224;50.904;6.038;2022-09-21T04:38:09;100831.78;;;8.85;84.03
59419;BME280;45224;50.904;6.038;2022-09-21T04:39:42;100824.94;;;8.87;83.80
59419;BME280;45224;50.904;6.038;2022-09-21T04:41:14;100829.34;;;8.91;84.04
59419;BME280;45224;50.904;6.038;2022-09-21T04:42:50;100825.13;;;8.95;84.15
59419;BME280;45224;50.904;6.038;2022-09-21T04:44:21;100830.31;;;8.97;83.64
59419;BME280;45224;50.904;6.038;2022-09-21T04:45:51;100819.91;;;8.93;83.66
59419;BME280;45224;50.904;6.038;2022-09-21T04:47:22;100825.94;;;8.94;83.74
59419;BME280;45224;50.904;6.038;2022-09-21T04:48:54;100828.56;;;8.95;83.72
59419;BME280;45224;50.904;6.038;2022-09-21T04:50:24;100834.50;;;8.93;83.77
59419;BME280;45224;50.904;6.038;2022-09-21T04:52:06;100833.50;;;8.86;84.34
59419;BME280;45224;50.904;6.038;2022-09-21T04:53:38;100832.50;;;8.81;83.84
59419;BME280;45224;50.904;6.038;2022-09-21T04:55:09;100835.91;;;8.79;83.47
59419;BME280;45224;50.904;6.038;2022-09-21T04:56:40;100832.28;;;8.72;83.61
59419;BME280;45224;50.904;6.038;2022-09-21T04:58:10;100833.97;;;8.70;83.69
59419;BME280;45224;50.904;6.038;2022-09-21T04:59:42;100835.56;;;8.65;84.14
59419;BME280;45224;50.904;6.038;2022-09-21T05:01:12;100838.06;;;8.62;83.83
59419;BME280;45224;50.904;6.038;2022-09-21T05:02:43;100838.94;;;8.62;84.05
59419;BME280;45224;50.904;6.038;2022-09-21T05:04:13;100833.78;;;8.62;84.18
59419;BME280;45224;50.904;6.038;2022-09-21T05:05:48;100844.94;;;8.61;84.05
59419;BME280;45224;50.904;6.038;2022-09-21T05:07:19;100841.47;;;8.61;83.71
59419;BME280;45224;50.904;6.038;2022-09-21T05:08:49;100841.41;;;8.57;83.98
59419;BME280;45224;50.904;6.038;2022-09-21T05:10:38;100840.53;;;8.57;83.56
59419;BME280;45224;50.904;6.038;2022-09-21T05:12:08;100846.50;;;8.54;83.98
59419;BME280;45224;50.904;6.038;2022-09-21T05:13:39;100849.88;;;8.53;83.63
59419;BME280;45224;50.904;6.038;2022-09-21T05:15:09;100846.25;;;8.45;83.98
59419;BME280;45224;50.904;6.038;2022-09-21T05:16:43;100845.34;;;8.43;84.12
59419;BME280;45224;50.904;6.038;2022-09-21T05:18:14;100851.25;;;8.40;84.47
59419;BME280;45224;50.904;6.038;2022-09-21T05:19:44;100850.34;;;8.38;83.97
59419;BME280;45224;50.904;6.038;2022-09-21T05:21:15;100851.13;;;8.36;84.06
59419;BME280;45224;50.904;6.038;2022-09-21T05:22:45;100853.66;;;8.34;84.12
59419;BME280;45224;50.904;6.038;2022-09-21T05:24:15;100852.72;;;8.31;84.41
59419;BME280;45224;50.904;6.038;2022-09-21T05:25:46;100850.97;;;8.30;84.17
59419;BME280;45224;50.904;6.038;2022-09-21T05:27:16;100859.53;;;8.29;84.44
59419;BME280;45224;50.904;6.038;2022-09-21T05:28:47;100858.69;;;8.30;84.25
59419;BME280;45224;50.904;6.038;2022-09-21T05:30:18;100852.63;;;8.28;84.54
59419;BME280;45224;50.904;6.038;2022-09-21T05:32:39;100855.13;;;8.25;84.72
59419;BME280;45224;50.904;6.038;2022-09-21T05:36:38;100866.28;;;8.23;85.01
59419;BME280;45224;50.904;6.038;2022-09-21T05:38:16;100858.50;;;8.22;84.79
59419;BME280;45224;50.904;6.038;2022-09-21T05:39:47;100856.72;;;8.19;85.27
59419;BME280;45224;50.904;6.038;2022-09-21T05:41:18;100862.00;;;8.24;85.20
59419;BME280;45224;50.904;6.038;2022-09-21T05:42:49;100861.13;;;8.23;85.73
59419;BME280;45224;50.904;6.038;2022-09-21T05:44:19;100859.47;;;8.26;86.03
59419;BME280;45224;50.904;6.038;2022-09-21T05:46:04;100869.81;;;8.27;86.00
59419;BME280;45224;50.904;6.038;2022-09-21T05:55:01;100868.53;;;8.43;85.52
59419;BME280;45224;50.904;6.038;2022-09-21T05:56:51;100866.06;;;8.48;85.40
59419;BME280;45224;50.904;6.038;2022-09-21T06:00:23;100867.19;;;8.57;85.85
59419;BME280;45224;50.904;6.038;2022-09-21T06:02:09;100865.59;;;8.63;85.82
59419;BME280;45224;50.904;6.038;2022-09-21T06:03:43;100869.91;;;8.64;85.60
59419;BME280;45224;50.904;6.038;2022-09-21T06:05:14;100867.41;;;8.67;86.30
59419;BME280;45224;50.904;6.038;2022-09-21T06:06:45;100870.22;;;8.76;85.91
59419;BME280;45224;50.904;6.038;2022-09-21T06:08:16;100873.94;;;8.87;85.42
59419;BME280;45224;50.904;6.038;2022-09-21T06:09:46;100876.59;;;8.90;85.02
59419;BME280;45224;50.904;6.038;2022-09-21T06:11:17;100874.09;;;8.93;85.05
59419;BME280;45224;50.904;6.038;2022-09-21T06:12:47;100881.97;;;9.00;84.85
59419;BME280;45224;50.904;6.038;2022-09-21T06:14:18;100878.53;;;9.01;84.57
59419;BME280;45224;50.904;6.038;2022-09-21T06:15:54;100879.44;;;9.01;84.54
59419;BME280;45224;50.904;6.038;2022-09-21T06:17:25;100883.69;;;9.01;84.88
59419;BME280;45224;50.904;6.038;2022-09-21T06:18:56;100890.53;;;8.99;84.65
59419;BME280;45224;50.904;6.038;2022-09-21T06:20:26;100877.53;;;8.94;84.72
59419;BME280;45224;50.904;6.038;2022-09-21T06:21:57;100886.13;;;8.94;84.81
59419;BME280;45224;50.904;6.038;2022-09-21T06:23:27;100884.47;;;8.97;85.16
59419;BME280;45224;50.904;6.038;2022-09-21T06:24:58;100890.53;;;8.99;85.19
59419;BME280;45224;50.904;6.038;2022-09-21T06:26:28;100892.28;;;9.00;85.23
59419;BME280;45224;50.904;6.038;2022-09-21T06:28:03;100891.47;;;9.02;84.66
59419;BME280;45224;50.904;6.038;2022-09-21T06:29:34;100899.22;;;9.02;84.29
59419;BME280;45224;50.904;6.038;2022-09-21T06:31:05;100890.63;;;9.02;84.69
59419;BME280;45224;50.904;6.038;2022-09-21T06:32:35;100896.69;;;9.04;84.38
59419;BME280;45224;50.904;6.038;2022-09-21T06:34:05;100893.31;;;9.06;84.29
59419;BME280;45224;50.904;6.038;2022-09-21T06:35:36;100899.47;;;9.13;83.23
59419;BME280;45224;50.904;6.038;2022-09-21T06:37:06;100897.81;;;9.15;83.37
59419;BME280;45224;50.904;6.038;2022-09-21T06:38:37;100895.84;;;9.05;83.45
59419;BME280;45224;50.904;6.038;2022-09-21T06:40:08;100903.59;;;9.05;83.52
59419;BME280;45224;50.904;6.038;2022-09-21T06:41:38;100898.47;;;9.06;83.45
59419;BME280;45224;50.904;6.038;2022-09-21T06:43:13;100901.88;;;9.05;83.34
59419;BME280;45224;50.904;6.038;2022-09-21T06:44:44;100902.81;;;9.09;83.15
59419;BME280;45224;50.904;6.038;2022-09-21T06:46:14;100902.03;;;9.11;82.82
59419;BME280;45224;50.904;6.038;2022-09-21T06:47:46;100905.56;;;9.17;83.04
59419;BME280;45224;50.904;6.038;2022-09-21T06:49:17;100902.28;;;9.22;83.30
59419;BME280;45224;50.904;6.038;2022-09-21T06:50:47;100896.25;;;9.23;82.81
59419;BME280;45224;50.904;6.038;2022-09-21T06:52:18;100905.81;;;9.26;82.59
59419;BME280;45224;50.904;6.038;2022-09-21T06:53:49;100898.88;;;9.25;82.22
59419;BME280;45224;50.904;6.038;2022-09-21T06:55:23;100904.88;;;9.22;83.26
59419;BME280;45224;50.904;6.038;2022-09-21T06:56:54;100908.41;;;9.27;83.45
59419;BME280;45224;50.904;6.038;2022-09-21T06:58:24;100911.22;;;9.37;83.46
59419;BME280;45224;50.904;6.038;2022-09-21T06:59:54;100909.59;;;9.42;83.63
59419;BME280;45224;50.904;6.038;2022-09-21T07:01:25;100907.94;;;9.44;83.99
59419;BME280;45224;50.904;6.038;2022-09-21T07:02:56;100903.88;;;9.55;83.64
59419;BME280;45224;50.904;6.038;2022-09-21T07:04:26;100909.19;;;9.61;83.73
59419;BME280;45224;50.904;6.038;2022-09-21T07:05:58;100902.31;;;9.63;84.04
59419;BME280;45224;50.904;6.038;2022-09-21T07:07:29;100904.16;;;9.67;84.20
59419;BME280;45224;50.904;6.038;2022-09-21T07:09:00;100903.34;;;9.72;84.54
59419;BME280;45224;50.904;6.038;2022-09-21T07:10:32;100902.66;;;9.79;84.80
59419;BME280;45224;50.904;6.038;2022-09-21T07:12:02;100899.28;;;9.83;84.71
59419;BME280;45224;50.904;6.038;2022-09-21T07:13:33;100899.34;;;9.86;84.91
59419;BME280;45224;50.904;6.038;2022-09-21T07:15:05;100903.84;;;9.96;84.71
59419;BME280;45224;50.904;6.038;2022-09-21T07:16:36;100902.22;;;10.00;84.95
59419;BME280;45224;50.904;6.038;2022-09-21T07:18:11;100901.56;;;10.10;84.93
59419;BME280;45224;50.904;6.038;2022-09-21T07:19:42;100897.47;;;10.21;84.79
59419;BME280;45224;50.904;6.038;2022-09-21T07:21:13;100899.34;;;10.29;84.68
59419;BME280;45224;50.904;6.038;2022-09-21T07:22:44;100904.66;;;10.36;84.84
59419;BME280;45224;50.904;6.038;2022-09-21T07:24:14;100905.63;;;10.41;84.88
59419;BME280;45224;50.904;6.038;2022-09-21T07:25:47;100893.72;;;10.50;84.62
59419;BME280;45224;50.904;6.038;2022-09-21T07:27:19;100904.16;;;10.56;85.72
59419;BME280;45224;50.904;6.038;2022-09-21T07:28:50;100895.69;;;10.63;84.57
59419;BME280;45224;50.904;6.038;2022-09-21T07:30:20;100898.47;;;10.74;84.26
59419;BME280;45224;50.904;6.038;2022-09-21T07:31:51;100900.38;;;10.86;84.44
59419;BME280;45224;50.904;6.038;2022-09-21T07:33:21;100897.94;;;10.93;84.10
59419;BME280;45224;50.904;6.038;2022-09-21T07:34:51;100906.75;;;11.06;84.01
59419;BME280;45224;50.904;6.038;2022-09-21T07:36:26;100891.28;;;11.09;84.32
59419;BME280;45224;50.904;6.038;2022-09-21T07:37:57;100898.38;;;11.23;84.39
59419;BME280;45224;50.904;6.038;2022-09-21T07:39:28;100905.50;;;11.39;84.04
59419;BME280;45224;50.904;6.038;2022-09-21T07:41:00;100905.69;;;11.51;83.84
59419;BME280;45224;50.904;6.038;2022-09-21T07:42:32;100907.41;;;11.52;83.70
59419;BME280;45224;50.904;6.038;2022-09-21T07:44:02;100896.19;;;11.50;84.08
59419;BME280;45224;50.904;6.038;2022-09-21T07:45:33;100909.31;;;11.63;83.41
59419;BME280;45224;50.904;6.038;2022-09-21T07:47:04;100902.59;;;11.77;83.40
59419;BME280;45224;50.904;6.038;2022-09-21T07:48:35;100904.31;;;11.78;84.48
59419;BME280;45224;50.904;6.038;2022-09-21T07:50:07;100901.00;;;11.88;83.89
59419;BME280;45224;50.904;6.038;2022-09-21T07:51:38;100905.25;;;11.85;82.71
59419;BME280;45224;50.904;6.038;2022-09-21T07:53:08;100904.25;;;11.75;81.98
59419;BME280;45224;50.904;6.038;2022-09-21T07:54:38;100902.69;;;11.86;81.92
59419;BME280;45224;50.904;6.038;2022-09-21T07:56:14;100912.38;;;11.98;81.74
59419;BME280;45224;50.904;6.038;2022-09-21T07:57:48;100902.09;;;12.08;81.86
59419;BME280;45224;50.904;6.038;2022-09-21T07:59:37;100896.22;;;12.19;82.00
59419;BME280;45224;50.904;6.038;2022-09-21T08:01:08;100901.59;;;12.41;82.47
59419;BME280;45224;50.904;6.038;2022-09-21T08:02:38;100907.81;;;12.55;80.80
59419;BME280;45224;50.904;6.038;2022-09-21T08:04:09;100907.03;;;12.66;80.75
59419;BME280;45224;50.904;6.038;2022-09-21T08:05:40;100899.31;;;12.73;79.14
59419;BME280;45224;50.904;6.038;2022-09-21T08:07:10;100902.06;;;12.93;79.84
59419;BME280;45224;50.904;6.038;2022-09-21T08:08:41;100903.97;;;13.13;78.41
59419;BME280;45224;50.904;6.038;2022-09-21T08:10:12;100901.66;;;13.53;79.61
59419;BME280;45224;50.904;6.038;2022-09-21T08:11:42;100901.69;;;13.59;77.05
59419;BME280;45224;50.904;6.038;2022-09-21T08:13:14;100905.19;;;13.66;75.89
59419;BME280;45224;50.904;6.038;2022-09-21T08:14:45;100905.28;;;13.84;76.00
59419;BME280;45224;50.904;6.038;2022-09-21T08:16:16;100909.69;;;14.04;75.67
59419;BME280;45224;50.904;6.038;2022-09-21T08:17:47;100896.75;;;14.25;73.32
59419;BME280;45224;50.904;6.038;2022-09-21T08:19:18;100908.06;;;14.51;73.20
59419;BME280;45224;50.904;6.038;2022-09-21T08:20:58;100907.25;;;14.64;70.93
59419;BME280;45224;50.904;6.038;2022-09-21T08:22:29;100908.16;;;14.94;71.44
59419;BME280;45224;50.904;6.038;2022-09-21T08:24:00;100902.06;;;15.15;71.47
59419;BME280;45224;50.904;6.038;2022-09-21T08:25:30;100902.84;;;15.49;71.48
59419;BME280;45224;50.904;6.038;2022-09-21T08:27:01;100906.31;;;15.76;70.95
59419;BME280;45224;50.904;6.038;2022-09-21T08:28:33;100912.28;;;15.98;68.71
59419;BME280;45224;50.904;6.038;2022-09-21T08:30:06;100919.06;;;16.32;67.94
59419;BME280;45224;50.904;6.038;2022-09-21T08:31:42;100912.81;;;16.60;67.00
59419;BME280;45224;50.904;6.038;2022-09-21T08:33:13;100915.25;;;16.85;67.03
59419;BME280;45224;50.904;6.038;2022-09-21T08:34:43;100924.63;;;17.11;65.51
59419;BME280;45224;50.904;6.038;2022-09-21T08:36:14;100921.78;;;17.34;63.47
59419;BME280;45224;50.904;6.038;2022-09-21T08:37:45;100915.31;;;17.70;63.81
59419;BME280;45224;50.904;6.038;2022-09-21T08:39:15;100908.16;;;17.90;61.14
59419;BME280;45224;50.904;6.038;2022-09-21T08:40:46;100913.09;;;18.10;59.42